AA6156 / N647AE 7700 Squawk Report (30th of April, 2021)

Aircraft E145 Reg No. N647AE Age N/A
Model ERJ-145 Jet engines 2 First flight 02-00
Registered 05-18 Rollout 01-00 Delivered 11-02-00
Construction No. 145222 Line No. N/A Series LR
ADSHEX A87F41 Airline name Envoy Air Owner Piedmont Airlines
Airfield based Philadelphia area~PA~N First tracked N/A

Flight history for N647AE

Route Flight No Date Playback
Philadelphia Intl (PHL) - Syracuse Hancock Intl (SYR) AA6268 2021-05-15 14:26:00
Richmond Intl (RIC) - Philadelphia Intl (PHL) N/A 2021-05-15 11:54:00
Philadelphia Intl (PHL) - Richmond Intl (RIC) AA6051 2021-05-15 02:23:00
Richmond Intl (RIC) - Philadelphia Intl (PHL) N/A 2021-05-14 23:24:00
Philadelphia Intl (PHL) - Richmond Intl (RIC) N/A 2021-05-14 22:39:00
Philadelphia Intl (PHL) - Manchester-Boston Regional Airport (MHT) - Philadelphia Intl (PHL) AA6263 2021-05-14 17:07:00
Piedmont Triad (GSO) - Philadelphia Intl (PHL) AA6019 2021-05-14 11:53:00
Charlotte Douglas (CLT) - Piedmont Triad (GSO) AA6015 2021-05-14 10:47:00
Lynchburg Regional Preston Glenn Field (LYH) - Charlotte Douglas (CLT) AA6039 2021-05-14 01:31:00
Charlotte Douglas (CLT) - Lynchburg Regional Preston Glenn Field (LYH) AA6047 2021-05-13 23:43:00
Charlotte Douglas (CLT) - Mobile Rgnl (MOB) - Charlotte Douglas (CLT) AA6165 2021-05-13 22:14:00
Roanoke–Blacksburg Regional (ROA) - Charlotte Douglas (CLT) AA6231 2021-05-13 18:32:00
Charlotte Douglas (CLT) - Roanoke–Blacksburg Regional (ROA) AA6064 2021-05-13 11:41:00
Tri-Cities Regional Airport (TRI) - Charlotte Douglas (CLT) N/A 2021-05-12 23:35:00
Tri-Cities Regional Airport (TRI) - Charlotte Douglas (CLT) AA6111 2021-05-12 20:13:00
Charlottesville-Albemarle (CHO) - Charlotte Douglas (CLT) PT6258 2021-05-12 16:19:00
Newport News Williamsburg Intl (PHF) - Charlotte Douglas (CLT) PT6205 2021-05-12 11:49:00
Charlotte Douglas (CLT) - Newport News Williamsburg Intl (PHF) N/A 2021-05-12 10:41:00
Montgomery Regional Airport (MGM) - Charlotte Douglas (CLT) AA6137 2021-05-12 01:07:00
Charlottesville-Albemarle (CHO) - Charlotte Douglas (CLT) AA6078 2021-05-11 19:49:00
Time Lat Lon Altitude Heading Speed Vertical Rate
2021-04-30 16:04:20 GMT 40.182404 -76.734756 825 297 129 -384
2021-04-30 16:04:09 GMT 40.179794 -76.727966 900 297 126 -256
2021-04-30 16:04:00 GMT 40.177608 -76.722458 1,000 298 124 -832
2021-04-30 16:03:51 GMT 40.174812 -76.715096 1,150 296 125 -768
2021-04-30 16:03:40 GMT 40.172161 -76.708290 1,250 298 130 -640
2021-04-30 16:03:34 GMT 40.170391 -76.703796 1,325 296 130 -256
2021-04-30 16:03:28 GMT 40.168854 -76.699615 1,425 297 128 -512
2021-04-30 16:03:17 GMT 40.165691 -76.691750 1,475 294 131 -512
2021-04-30 16:03:09 GMT 40.164200 -76.685448 1,625 277 129 -832
2021-04-30 16:03:05 GMT 40.164059 -76.683258 1,650 272 133 -1536
2021-04-30 16:02:58 GMT 40.164230 -76.677185 1,800 263 141 -768
2021-04-30 16:02:52 GMT 40.164825 -76.671997 1,825 261 152 -320
2021-04-30 16:02:47 GMT 40.165375 -76.667908 1,825 259 162 -384
2021-04-30 16:02:41 GMT 40.166435 -76.661911 1,875 254 168 -640
2021-04-30 16:02:37 GMT 40.167297 -76.658203 1,925 252 167 -832
2021-04-30 16:02:31 GMT 40.169540 -76.650269 2,025 247 163 -576
2021-04-30 16:02:28 GMT 40.170044 -76.648804 2,050 246 164 -768
2021-04-30 16:02:15 GMT 40.174580 -76.636192 2,225 244 163 -256
2021-04-30 16:02:06 GMT 40.177326 -76.629890 2,250 238 165 0
2021-04-30 16:02:02 GMT 40.179192 -76.626205 2,250 237 166 -128
2021-04-30 16:01:56 GMT 40.181889 -76.620834 2,275 237 165 -448
2021-04-30 16:01:45 GMT 40.186314 -76.612534 2,300 233 172 -576
2021-04-30 16:01:35 GMT 40.192410 -76.604294 2,400 216 180 -960
2021-04-30 16:01:23 GMT 40.200348 -76.598450 2,425 207 190 -256
2021-04-30 16:01:17 GMT 40.205956 -76.594933 2,475 205 196 0
2021-04-30 16:01:14 GMT 40.208817 -76.593323 2,475 200 202 -832
2021-04-30 16:01:05 GMT 40.216644 -76.590881 2,525 184 216 960
2021-04-30 16:01:01 GMT 40.221588 -76.591003 2,500 170 230 -640
2021-04-30 16:00:53 GMT 40.229328 -76.593742 2,650 156 240 -512
2021-04-30 16:00:50 GMT 40.233215 -76.596008 2,675 152 242 448
2021-04-30 16:00:42 GMT 40.240082 -76.601173 2,775 148 246 -1024
2021-04-30 16:00:39 GMT 40.243790 -76.604065 2,850 148 247 -1152
2021-04-30 16:00:31 GMT 40.250473 -76.609375 2,950 148 249 -640
2021-04-30 16:00:27 GMT 40.255188 -76.613159 3,000 147 251 -1536
2021-04-30 16:00:21 GMT 40.261139 -76.618103 3,075 147 253 -768
2021-04-30 16:00:10 GMT 40.270897 -76.626015 3,200 148 253 -448
2021-04-30 16:00:01 GMT 40.281647 -76.634460 3,250 149 258 -960
2021-04-30 15:59:52 GMT 40.289886 -76.640747 3,275 148 261 576
2021-04-30 15:59:49 GMT 40.292496 -76.642822 3,300 148 261 576
2021-04-30 15:59:42 GMT 40.300598 -76.649178 3,275 148 261 320
2021-04-30 15:59:39 GMT 40.303902 -76.651863 3,250 148 261 576
2021-04-30 15:59:32 GMT 40.311539 -76.657837 3,225 150 257 -64
2021-04-30 15:59:28 GMT 40.314240 -76.659790 3,250 150 256 -448
2021-04-30 15:59:19 GMT 40.324677 -76.667480 3,300 150 249 192
2021-04-30 15:59:10 GMT 40.332485 -76.673149 3,275 150 244 -896
2021-04-30 15:59:07 GMT 40.336212 -76.675964 3,300 149 241 -768
2021-04-30 15:59:04 GMT 40.340305 -76.679016 3,325 148 234 -960
2021-04-30 15:59:01 GMT 40.342392 -76.680603 3,325 150 237 0
2021-04-30 15:58:58 GMT 40.345093 -76.682556 3,325 150 236 -832
2021-04-30 15:58:50 GMT 40.352131 -76.687813 3,425 149 237 -1408
2021-04-30 15:58:47 GMT 40.356647 -76.691376 3,500 148 236 -960
2021-04-30 15:58:39 GMT 40.362186 -76.695869 3,600 148 234 -960
2021-04-30 15:58:35 GMT 40.366238 -76.699181 3,675 148 232 -1216
2021-04-30 15:58:30 GMT 40.371140 -76.703186 3,775 147 231 -960
2021-04-30 15:58:25 GMT 40.375854 -76.707153 3,875 146 234 -1856
2021-04-30 15:58:19 GMT 40.380981 -76.711487 4,025 147 237 -1792
2021-04-30 15:58:16 GMT 40.383739 -76.713844 4,100 147 241 -1600
2021-04-30 15:58:12 GMT 40.387711 -76.717163 4,225 147 247 -1216
2021-04-30 15:58:09 GMT 40.390366 -76.719421 4,275 147 245 -1664
2021-04-30 15:58:05 GMT 40.394257 -76.722595 4,375 147 247 -1408
2021-04-30 15:57:59 GMT 40.400436 -76.727722 4,525 147 247 -1024
2021-04-30 15:57:54 GMT 40.404327 -76.730896 4,625 147 247 -1536
2021-04-30 15:57:48 GMT 40.410507 -76.736084 4,825 147 246 -1536
2021-04-30 15:57:45 GMT 40.414139 -76.739128 4,875 147 245 -1344
2021-04-30 15:57:36 GMT 40.422890 -76.746559 5,075 147 241 -1280
2021-04-30 15:57:33 GMT 40.424606 -76.747986 5,125 147 241 -1408
2021-04-30 15:57:28 GMT 40.430237 -76.752625 5,250 148 238 -896
2021-04-30 15:57:24 GMT 40.433830 -76.755486 5,350 147 238 -1408
2021-04-30 15:57:15 GMT 40.443741 -76.763672 5,550 147 239 -1024
2021-04-30 15:57:06 GMT 40.449371 -76.768372 5,675 147 239 -1280
2021-04-30 15:57:03 GMT 40.453663 -76.771965 5,775 147 240 -1216
2021-04-30 15:56:57 GMT 40.459248 -76.776703 5,900 146 239 -1408
2021-04-30 15:56:54 GMT 40.462051 -76.779114 5,975 147 239 -1280
2021-04-30 15:56:51 GMT 40.463562 -76.780334 5,975 147 239 -1280
2021-04-30 15:56:46 GMT 40.468559 -76.784630 6,100 147 239 -1344
2021-04-30 15:56:42 GMT 40.472900 -76.788208 6,200 148 240 -1472
2021-04-30 15:56:35 GMT 40.478577 -76.792786 6,300 148 242 -1408
2021-04-30 15:56:31 GMT 40.483200 -76.796509 6,425 148 244 -1408
2021-04-30 15:56:25 GMT 40.489426 -76.801392 6,550 149 245 -1216
2021-04-30 15:56:20 GMT 40.494141 -76.804993 6,650 149 245 -1216
2021-04-30 15:56:15 GMT 40.498726 -76.808418 6,725 150 246 -1024
2021-04-30 15:56:10 GMT 40.503471 -76.811974 6,825 150 247 -1024
2021-04-30 15:56:04 GMT 40.508881 -76.815979 6,925 150 248 -1088
2021-04-30 15:55:59 GMT 40.514053 -76.819885 7,025 149 249 -1152
2021-04-30 15:55:54 GMT 40.519226 -76.823914 7,125 149 250 -1152
2021-04-30 15:55:49 GMT 40.524857 -76.828125 7,225 150 249 -1088
2021-04-30 15:55:41 GMT 40.533638 -76.834068 7,250 155 247 256
2021-04-30 15:55:38 GMT 40.535732 -76.835320 7,225 156 246 320
2021-04-30 15:55:34 GMT 40.541016 -76.838135 7,250 159 246 -320
2021-04-30 15:55:29 GMT 40.546143 -76.840637 7,250 159 246 64
2021-04-30 15:55:22 GMT 40.552353 -76.843750 7,250 158 242 64
2021-04-30 15:55:17 GMT 40.558090 -76.846619 7,275 159 245 -64
2021-04-30 15:55:12 GMT 40.562805 -76.848938 7,275 159 244 -64
2021-04-30 15:55:08 GMT 40.568504 -76.851738 7,275 159 243 320
2021-04-30 15:55:03 GMT 40.573792 -76.854309 7,250 159 243 64
2021-04-30 15:54:56 GMT 40.579865 -76.857414 7,250 159 241 -128
2021-04-30 15:54:50 GMT 40.586746 -76.860779 7,250 159 242 64
2021-04-30 15:54:47 GMT 40.590340 -76.862534 7,250 159 243 128
2021-04-30 15:54:41 GMT 40.595581 -76.865173 7,250 159 243 64
2021-04-30 15:54:38 GMT 40.598969 -76.866882 7,250 159 245 64
2021-04-30 15:54:35 GMT 40.602165 -76.868469 7,250 159 247 -128
2021-04-30 15:54:32 GMT 40.606247 -76.870483 7,250 159 247 -192
2021-04-30 15:54:26 GMT 40.612656 -76.873657 7,250 159 248 64
2021-04-30 15:54:18 GMT 40.621216 -76.877991 7,250 158 248 -128
2021-04-30 15:54:14 GMT 40.625107 -76.880005 7,250 158 248 -64
2021-04-30 15:54:05 GMT 40.635361 -76.885254 7,275 158 247 -128
2021-04-30 15:53:57 GMT 40.644527 -76.890068 7,275 158 246 64
2021-04-30 15:53:54 GMT 40.646622 -76.891190 7,275 158 246 -64
2021-04-30 15:53:48 GMT 40.652950 -76.894562 7,275 158 245 -192
2021-04-30 15:53:42 GMT 40.659283 -76.897926 7,250 157 247 320
2021-04-30 15:53:38 GMT 40.662918 -76.899902 7,250 157 248 128
2021-04-30 15:53:31 GMT 40.670151 -76.903931 7,250 156 253 -256
2021-04-30 15:53:26 GMT 40.676193 -76.907349 7,250 156 254 -192
2021-04-30 15:53:22 GMT 40.681164 -76.910225 7,275 156 258 -256
2021-04-30 15:53:16 GMT 40.687309 -76.913727 7,525 157 258 -1024
2021-04-30 15:53:11 GMT 40.692616 -76.916718 7,350 156 258 -1216
2021-04-30 15:53:08 GMT 40.701878 -76.921776 7,525 157 257 -1088
2021-04-30 15:53:02 GMT 40.701878 -76.921776 7,525 158 253 -1408
2021-04-30 15:52:57 GMT 40.707779 -76.924927 7,625 158 254 -1280
2021-04-30 15:52:53 GMT 40.712399 -76.927330 7,725 159 253 -1280
2021-04-30 15:52:50 GMT 40.715893 -76.929077 7,775 159 253 -1280
2021-04-30 15:52:47 GMT 40.719177 -76.930725 8,000 159 254 -1216
2021-04-30 15:52:44 GMT 40.722290 -76.932251 7,900 161 254 -1216
2021-04-30 15:52:40 GMT 40.726505 -76.934196 7,975 161 254 -1216
2021-04-30 15:52:37 GMT 40.730759 -76.936096 8,050 161 254 -1152
2021-04-30 15:52:30 GMT 40.738655 -76.939255 8,175 164 253 -1088
2021-04-30 15:52:25 GMT 40.743851 -76.941040 8,275 166 260 -1088
2021-04-30 15:52:20 GMT 40.749550 -76.942940 8,400 165 253 -1216
2021-04-30 15:52:16 GMT 40.753647 -76.944313 8,425 165 253 -1152
2021-04-30 15:52:09 GMT 40.762348 -76.947182 8,550 165 254 -1216
2021-04-30 15:52:05 GMT 40.765778 -76.948303 8,600 166 255 -1216
2021-04-30 15:51:59 GMT 40.773384 -76.950737 8,750 166 256 -960
2021-04-30 15:51:54 GMT 40.779900 -76.952736 8,850 166 260 -1088
2021-04-30 15:51:49 GMT 40.785484 -76.954422 8,950 166 260 -1216
2021-04-30 15:51:44 GMT 40.790188 -76.955856 9,000 166 260 -1216
2021-04-30 15:51:37 GMT 40.798195 -76.958359 9,150 166 260 -1024
2021-04-30 15:51:34 GMT 40.801666 -76.959412 9,200 166 260 -1024
2021-04-30 15:51:28 GMT 40.810547 -76.962158 9,325 167 258 -1024
2021-04-30 15:51:25 GMT 40.813339 -76.963013 9,375 166 257 -1216
2021-04-30 15:51:20 GMT 40.818466 -76.964600 9,475 166 257 -1280
2021-04-30 15:51:14 GMT 40.825378 -76.966797 9,575 165 255 -704
2021-04-30 15:51:07 GMT 40.834785 -76.969902 9,700 166 254 -1152
2021-04-30 15:51:04 GMT 40.837532 -76.970779 9,750 166 253 -576
2021-04-30 15:50:54 GMT 40.848679 -76.974426 9,925 166 252 -1024
2021-04-30 15:50:48 GMT 40.855686 -76.976646 10,025 166 248 -1472
2021-04-30 15:50:44 GMT 40.861313 -76.978455 10,125 166 249 -1152
2021-04-30 15:50:38 GMT 40.865753 -76.979919 10,200 165 247 -1152
2021-04-30 15:50:33 GMT 40.871979 -76.981995 10,300 165 247 -960
2021-04-30 15:50:27 GMT 40.877987 -76.983948 10,400 166 246 -1024
2021-04-30 15:50:22 GMT 40.883514 -76.985718 10,475 166 243 -960
2021-04-30 15:50:18 GMT 40.888973 -76.987442 10,550 166 241 -832
2021-04-30 15:50:15 GMT 40.893082 -76.988770 10,600 166 239 -768
2021-04-30 15:50:12 GMT 40.894604 -76.989258 10,625 166 238 -576
2021-04-30 15:50:02 GMT 40.905640 -76.992874 10,775 165 233 -960
2021-04-30 15:49:56 GMT 40.912125 -76.995056 10,975 165 231 -1984
2021-04-30 15:49:52 GMT 40.916290 -76.996460 11,000 165 231 -2432
2021-04-30 15:49:46 GMT 40.921883 -76.998367 11,425 166 232 -2368
2021-04-30 15:49:42 GMT 40.926682 -77.000000 11,425 165 233 -2240
2021-04-30 15:49:37 GMT 40.932953 -77.002014 11,650 166 232 -2432
2021-04-30 15:49:32 GMT 40.938400 -77.003845 11,850 165 233 -2368
2021-04-30 15:49:19 GMT 40.949863 -77.007607 12,225 166 232 -1920
2021-04-30 15:49:15 GMT 40.955357 -77.009293 12,375 167 234 -1600
2021-04-30 15:49:10 GMT 40.959591 -77.010605 12,500 167 236 -1664
2021-04-30 15:49:06 GMT 40.964710 -77.012161 12,675 166 237 -1792
2021-04-30 15:49:03 GMT 40.967926 -77.013184 12,725 166 238 -2112
2021-04-30 15:48:59 GMT 40.972229 -77.014587 12,850 166 239 -2112
2021-04-30 15:48:53 GMT 40.978729 -77.016724 13,075 165 241 -2176
2021-04-30 15:48:49 GMT 40.983490 -77.018311 13,350 165 241 -1984
2021-04-30 15:48:42 GMT 40.990906 -77.020935 13,450 164 245 -2048
2021-04-30 15:48:39 GMT 40.993515 -77.021851 13,550 165 246 -2304
2021-04-30 15:48:34 GMT 40.998825 -77.023682 13,725 165 246 -2432
2021-04-30 15:48:29 GMT 41.005920 -77.026062 14,000 166 247 -2816
2021-04-30 15:48:19 GMT 41.016129 -77.029236 14,450 167 245 -3008
2021-04-30 15:48:12 GMT 41.024811 -77.031761 14,825 167 245 -3008
2021-04-30 15:48:07 GMT 41.029236 -77.033073 15,025 167 245 -3008
2021-04-30 15:48:01 GMT 41.036087 -77.035217 15,350 167 246 -3072
2021-04-30 15:47:57 GMT 41.040527 -77.036560 15,550 166 246 -3008
2021-04-30 15:47:53 GMT 41.044968 -77.037903 15,725 166 246 -3072
2021-04-30 15:47:48 GMT 41.049408 -77.039368 16,150 166 247 -3136
2021-04-30 15:47:43 GMT 41.055634 -77.041382 16,225 166 247 -3136
2021-04-30 15:47:37 GMT 41.061634 -77.043312 16,475 166 246 -2880
2021-04-30 15:47:30 GMT 41.070282 -77.046143 16,900 165 246 -3008
2021-04-30 15:47:26 GMT 41.073807 -77.047302 16,975 165 246 -3008
2021-04-30 15:47:22 GMT 41.079117 -77.049133 17,300 165 246 -2944
2021-04-30 15:47:17 GMT 41.083969 -77.050781 17,725 165 270 -2112
2021-04-30 15:47:12 GMT 41.089325 -77.052551 17,725 165 248 -2944
2021-04-30 15:47:08 GMT 41.095337 -77.054672 18,000 164 249 -2752
2021-04-30 15:47:03 GMT 41.100449 -77.056519 18,200 164 252 -2560
2021-04-30 15:46:57 GMT 41.106556 -77.058731 18,600 165 270 -2112
2021-04-30 15:46:53 GMT 41.112305 -77.060791 18,600 164 261 -2112
2021-04-30 15:46:45 GMT 41.120522 -77.063660 18,775 165 264 -2304
2021-04-30 15:46:41 GMT 41.124805 -77.065163 18,975 165 270 -2112
2021-04-30 15:46:35 GMT 41.132114 -77.067657 19,250 165 277 -2176
2021-04-30 15:46:31 GMT 41.138351 -77.069763 19,375 165 280 -2240
2021-04-30 15:46:26 GMT 41.144943 -77.072021 19,850 165 299 -2368
2021-04-30 15:46:20 GMT 41.153824 -77.075012 19,800 165 299 -2368
2021-04-30 15:46:17 GMT 41.157299 -77.076210 19,900 165 301 -2048
2021-04-30 15:46:14 GMT 41.161118 -77.077454 20,000 165 307 -2240
2021-04-30 15:46:10 GMT 41.165493 -77.078957 20,100 165 308 -2240
2021-04-30 15:46:07 GMT 41.169403 -77.080261 20,275 165 316 -2240
2021-04-30 15:46:04 GMT 41.173645 -77.081726 20,325 165 321 -2368
2021-04-30 15:46:00 GMT 41.179131 -77.083572 20,500 165 325 -2240
2021-04-30 15:45:55 GMT 41.187698 -77.086426 20,675 165 336 -1344
2021-04-30 15:45:52 GMT 41.190720 -77.087402 20,850 166 342 -1920
2021-04-30 15:45:49 GMT 41.197754 -77.089691 20,850 166 342 -1920
2021-04-30 15:45:44 GMT 41.204548 -77.091812 21,000 166 344 -2496
2021-04-30 15:45:39 GMT 41.211685 -77.094055 21,200 166 344 -2624
2021-04-30 15:45:35 GMT 41.219101 -77.096497 21,375 166 344 -1728
2021-04-30 15:45:32 GMT 41.223171 -77.097809 21,450 165 346 -1472
2021-04-30 15:45:27 GMT 41.230015 -77.100052 21,550 165 346 -1408
2021-04-30 15:45:24 GMT 41.235947 -77.102112 21,625 165 350 -1152
2021-04-30 15:45:19 GMT 41.241932 -77.104111 21,950 165 352 -1152
2021-04-30 15:45:16 GMT 41.248215 -77.106293 21,750 165 352 -1152
2021-04-30 15:45:13 GMT 41.251987 -77.107605 21,800 165 351 -1216
2021-04-30 15:45:09 GMT 41.258606 -77.109802 21,900 166 351 -1216
2021-04-30 15:45:02 GMT 41.269070 -77.113159 22,075 166 351 -1280
2021-04-30 15:44:59 GMT 41.274445 -77.114868 22,525 165 353 -1216
2021-04-30 15:44:52 GMT 41.290924 -77.120178 22,275 166 351 -1280
2021-04-30 15:44:49 GMT 41.290924 -77.120178 22,300 166 353 -1280
2021-04-30 15:44:43 GMT 41.298862 -77.122772 22,925 165 353 -1280
2021-04-30 15:44:40 GMT 41.306454 -77.125336 22,500 165 353 -1216
2021-04-30 15:44:37 GMT 41.309013 -77.126205 22,975 165 355 -1216
2021-04-30 15:44:34 GMT 41.315346 -77.128334 22,625 165 354 -1152
2021-04-30 15:44:29 GMT 41.322647 -77.130859 22,775 165 355 -1216
2021-04-30 15:44:25 GMT 41.327446 -77.132515 22,775 165 355 -1216
2021-04-30 15:44:22 GMT 41.334732 -77.135010 22,875 165 355 -1152
2021-04-30 15:44:18 GMT 41.340157 -77.136818 22,950 165 355 -832
2021-04-30 15:44:15 GMT 41.343658 -77.138000 22,950 165 355 -832
2021-04-30 15:44:12 GMT 41.348145 -77.139526 22,975 165 355 -384
2021-04-30 15:44:09 GMT 41.356075 -77.142250 23,000 166 354 0
2021-04-30 15:44:06 GMT 41.365311 -77.145264 23,000 166 352 64
2021-04-30 15:44:03 GMT 41.365311 -77.145264 23,000 166 354 0
2021-04-30 15:44:00 GMT 41.370438 -77.146912 23,000 166 353 0
2021-04-30 15:43:55 GMT 41.376801 -77.148987 23,000 166 353 64
2021-04-30 15:43:52 GMT 41.380600 -77.150146 23,000 166 353 -64
2021-04-30 15:43:48 GMT 41.387920 -77.152512 23,000 166 352 0
2021-04-30 15:43:44 GMT 41.392685 -77.153984 23,000 166 352 0
2021-04-30 15:43:40 GMT 41.399975 -77.156281 23,000 166 353 64
2021-04-30 15:43:36 GMT 41.405411 -77.158043 23,000 166 353 -64
2021-04-30 15:43:30 GMT 41.416550 -77.161644 23,000 166 354 -128
2021-04-30 15:43:25 GMT 41.423813 -77.164040 23,000 166 354 0
2021-04-30 15:43:22 GMT 41.429863 -77.166054 23,000 165 354 64
2021-04-30 15:43:19 GMT 41.433075 -77.167076 23,000 165 354 64
2021-04-30 15:43:15 GMT 41.441360 -77.169823 23,000 166 355 -64
2021-04-30 15:43:11 GMT 41.446152 -77.171402 23,000 166 355 -64
2021-04-30 15:43:08 GMT 41.450298 -77.172760 23,000 166 355 -64
2021-04-30 15:43:05 GMT 41.456360 -77.174774 23,000 166 355 -128
2021-04-30 15:42:58 GMT 41.468220 -77.178635 23,000 166 356 0
2021-04-30 15:42:53 GMT 41.474304 -77.180702 23,000 166 356 0
2021-04-30 15:42:50 GMT 41.478790 -77.182137 23,000 166 356 0
2021-04-30 15:42:46 GMT 41.486797 -77.184830 23,000 165 357 0
2021-04-30 15:42:43 GMT 41.490612 -77.186111 23,000 165 357 0
2021-04-30 15:42:40 GMT 41.495735 -77.187836 23,000 165 357 0
2021-04-30 15:42:36 GMT 41.503414 -77.190514 23,000 165 358 0
2021-04-30 15:42:28 GMT 41.516216 -77.195053 23,000 164 358 0
2021-04-30 15:42:25 GMT 41.526459 -77.198753 23,000 164 358 0
2021-04-30 15:42:17 GMT 41.532578 -77.200928 23,000 164 359 64
2021-04-30 15:42:13 GMT 41.538986 -77.203239 23,000 164 359 0
2021-04-30 15:42:10 GMT 41.545128 -77.205399 23,000 165 360 64
2021-04-30 15:42:04 GMT 41.554157 -77.208527 23,000 165 359 0
2021-04-30 15:41:59 GMT 41.561554 -77.211105 23,000 165 361 0
2021-04-30 15:41:56 GMT 41.566040 -77.212723 23,000 165 360 -64
2021-04-30 15:41:53 GMT 41.571568 -77.214661 23,000 165 360 -64
2021-04-30 15:41:50 GMT 41.575745 -77.216095 23,000 165 361 0
2021-04-30 15:41:46 GMT 41.582840 -77.218658 23,000 165 361 0
2021-04-30 15:41:43 GMT 41.587723 -77.220345 23,000 164 361 -64
2021-04-30 15:41:38 GMT 41.594467 -77.222778 23,000 164 361 0
2021-04-30 15:41:35 GMT 41.599964 -77.224754 23,000 164 361 -64
2021-04-30 15:41:32 GMT 41.606434 -77.227119 23,000 164 362 64
2021-04-30 15:41:29 GMT 41.611267 -77.228889 23,000 164 361 0
2021-04-30 15:41:26 GMT 41.616119 -77.230690 23,000 164 362 64
2021-04-30 15:41:23 GMT 41.620331 -77.232201 23,000 164 362 64
2021-04-30 15:41:20 GMT 41.624863 -77.233887 23,000 166 363 -64
2021-04-30 15:41:17 GMT 41.629757 -77.235611 23,000 165 363 64
2021-04-30 15:41:13 GMT 41.636536 -77.238007 23,000 165 362 64
2021-04-30 15:41:08 GMT 41.645351 -77.241043 23,000 165 363 0
2021-04-30 15:41:03 GMT 41.661041 -77.246086 23,000 167 362 64
2021-04-30 15:40:58 GMT 41.661041 -77.246086 23,000 167 362 64
2021-04-30 15:40:55 GMT 41.666904 -77.247871 23,000 168 362 0
2021-04-30 15:40:50 GMT 41.673157 -77.249557 23,000 168 362 0
2021-04-30 15:40:45 GMT 41.683685 -77.252174 23,000 170 361 64
2021-04-30 15:40:42 GMT 41.688644 -77.253174 23,000 172 359 -128
2021-04-30 15:40:37 GMT 41.697258 -77.254646 23,000 173 359 -128
2021-04-30 15:40:34 GMT 41.700565 -77.255028 23,000 175 358 -128
2021-04-30 15:40:31 GMT 41.704788 -77.255486 23,025 179 355 -128
2021-04-30 15:40:26 GMT 41.711784 -77.255798 23,025 182 353 0
2021-04-30 15:40:23 GMT 41.716995 -77.255669 23,025 184 350 64
2021-04-30 15:40:20 GMT 41.722164 -77.255219 23,025 215 328 448
2021-04-30 15:40:17 GMT 41.729195 -77.253876 23,000 193 343 128
2021-04-30 15:40:14 GMT 41.733810 -77.252365 23,000 201 338 0
2021-04-30 15:40:11 GMT 41.737427 -77.250870 23,000 201 338 64
2021-04-30 15:40:06 GMT 41.743744 -77.247307 23,000 208 333 128
2021-04-30 15:40:03 GMT 41.752213 -77.240753 22,975 213 330 320
2021-04-30 15:40:00 GMT 41.752213 -77.240753 22,975 214 329 448
2021-04-30 15:39:56 GMT 41.757751 -77.235756 22,950 215 319 704
2021-04-30 15:39:52 GMT 41.761967 -77.231842 22,925 215 324 128
2021-04-30 15:39:48 GMT 41.768345 -77.225967 22,925 215 320 320
2021-04-30 15:39:45 GMT 41.770809 -77.223663 22,900 215 319 704
2021-04-30 15:39:42 GMT 41.774460 -77.220345 22,850 215 317 1728
2021-04-30 15:39:39 GMT 41.778072 -77.217026 22,750 215 317 1664
2021-04-30 15:39:36 GMT 41.781006 -77.214340 22,700 215 317 1728
2021-04-30 15:39:33 GMT 41.784359 -77.211273 22,500 215 316 1472
2021-04-30 15:39:29 GMT 41.790894 -77.205299 22,475 215 316 1472
2021-04-30 15:39:24 GMT 41.796459 -77.200226 21,325 215 316 2304
2021-04-30 15:39:21 GMT 41.799591 -77.197304 22,325 215 315 1472
2021-04-30 15:39:17 GMT 41.805359 -77.192062 22,200 215 314 1728
2021-04-30 15:39:14 GMT 41.807281 -77.190315 22,150 215 315 1856
2021-04-30 15:39:07 GMT 41.820374 -77.178459 21,850 215 316 2240
2021-04-30 15:39:04 GMT 41.820374 -77.178459 21,750 215 316 2240
2021-04-30 15:39:01 GMT 41.824219 -77.174896 21,625 215 318 2112
2021-04-30 15:38:57 GMT 41.828522 -77.170967 21,525 215 318 1728
2021-04-30 15:38:52 GMT 41.833969 -77.166031 21,400 215 318 1856
2021-04-30 15:38:48 GMT 41.839523 -77.161003 21,250 215 318 2176
2021-04-30 15:38:44 GMT 41.845947 -77.155197 20,775 215 319 2176
2021-04-30 15:38:36 GMT 41.854523 -77.147308 20,800 215 321 2240
2021-04-30 15:38:30 GMT 41.862396 -77.140068 20,550 215 323 2240
2021-04-30 15:38:25 GMT 41.868057 -77.134819 20,350 215 324 1984
2021-04-30 15:38:21 GMT 41.874252 -77.129082 20,225 215 325 1920
2021-04-30 15:38:17 GMT 41.877930 -77.125618 20,150 216 325 1664
2021-04-30 15:38:13 GMT 41.884140 -77.119843 19,900 216 325 1536
2021-04-30 15:38:07 GMT 41.893803 -77.110863 19,850 215 326 1536
2021-04-30 15:38:04 GMT 41.893803 -77.110863 19,800 215 325 1408
2021-04-30 15:37:56 GMT 41.903458 -77.101990 19,625 215 324 1408
2021-04-30 15:37:51 GMT 41.909409 -77.096558 19,500 215 322 1792
2021-04-30 15:37:48 GMT 41.914307 -77.092003 19,375 215 323 1984
2021-04-30 15:37:45 GMT 41.916519 -77.089981 19,325 215 323 2112
2021-04-30 15:37:41 GMT 41.922089 -77.084763 19,075 216 323 2112
2021-04-30 15:37:37 GMT 41.927319 -77.079826 18,675 215 324 2112
2021-04-30 15:37:33 GMT 41.932255 -77.075226 18,875 216 325 2304
2021-04-30 15:37:30 GMT 41.935234 -77.072411 18,550 215 328 2496
2021-04-30 15:37:25 GMT 41.941864 -77.066223 18,550 215 328 2496
2021-04-30 15:37:20 GMT 41.947449 -77.061104 18,325 215 330 2112
2021-04-30 15:37:14 GMT 41.955551 -77.053673 18,150 215 332 1984
2021-04-30 15:37:09 GMT 41.961182 -77.048553 18,000 215 333 1856
2021-04-30 15:37:04 GMT 41.968323 -77.042000 17,825 215 334 1920
2021-04-30 15:36:59 GMT 41.975967 -77.034950 17,650 215 335 1664
2021-04-30 15:36:54 GMT 41.981274 -77.029938 17,525 215 335 1664
2021-04-30 15:36:51 GMT 41.984344 -77.027061 17,475 215 335 1600
2021-04-30 15:36:47 GMT 41.989979 -77.021828 17,350 215 335 1472
2021-04-30 15:36:44 GMT 41.994587 -77.017609 17,300 215 335 896
2021-04-30 15:36:32 GMT 42.009857 -77.003624 17,100 215 331 1152
2021-04-30 15:36:23 GMT 42.021194 -76.993126 16,925 215 328 960
2021-04-30 15:36:13 GMT 42.033318 -76.981651 16,325 216 325 1856
2021-04-30 15:36:03 GMT 42.046165 -76.969643 16,425 215 325 1344
2021-04-30 15:35:58 GMT 42.050903 -76.965286 16,325 215 325 1344
2021-04-30 15:35:52 GMT 42.060551 -76.956421 16,100 215 326 1792
2021-04-30 15:35:40 GMT 42.073746 -76.944374 15,800 215 326 1792
2021-04-30 15:35:32 GMT 42.097561 -76.922752 15,300 215 327 2176
2021-04-30 15:35:21 GMT 42.097561 -76.922752 15,100 215 328 2048
2021-04-30 15:35:16 GMT 42.104126 -76.916756 14,925 215 329 2240
2021-04-30 15:35:10 GMT 42.110916 -76.910416 14,775 215 330 1472
2021-04-30 15:35:07 GMT 42.115906 -76.905731 14,675 215 327 1024
2021-04-30 15:34:59 GMT 42.125633 -76.896698 14,550 215 325 1088
2021-04-30 15:34:48 GMT 42.138199 -76.885010 14,275 215 320 1536
2021-04-30 15:34:38 GMT 42.151474 -76.872772 14,000 215 320 1600
2021-04-30 15:34:28 GMT 42.163898 -76.861244 13,700 215 318 1856
2021-04-30 15:34:19 GMT 42.174046 -76.851730 13,450 215 317 1664
2021-04-30 15:34:16 GMT 42.177399 -76.848534 13,375 215 317 1728
2021-04-30 15:34:06 GMT 42.189922 -76.837036 13,050 215 315 2176
2021-04-30 15:33:59 GMT 42.199509 -76.828156 12,775 215 316 1536
2021-04-30 15:33:54 GMT 42.203979 -76.824074 12,700 215 314 1536
2021-04-30 15:33:47 GMT 42.212723 -76.815910 12,500 215 313 1472
2021-04-30 15:33:43 GMT 42.217293 -76.811554 12,425 215 310 1280
2021-04-30 15:33:37 GMT 42.224121 -76.805229 12,300 215 307 1152
2021-04-30 15:33:32 GMT 42.231583 -76.798363 12,200 215 306 960
2021-04-30 15:33:28 GMT 42.235962 -76.794304 12,125 215 300 1152
2021-04-30 15:33:24 GMT 42.238953 -76.791565 12,075 215 299 1216
2021-04-30 15:33:17 GMT 42.247318 -76.783768 11,925 215 295 1408
2021-04-30 15:33:14 GMT 42.250858 -76.780441 11,850 215 293 1536
2021-04-30 15:33:06 GMT 42.259094 -76.772713 11,650 215 290 2176
2021-04-30 15:33:03 GMT 42.262447 -76.769653 11,525 215 290 2304
2021-04-30 15:32:57 GMT 42.270874 -76.761925 11,225 215 290 2432
2021-04-30 15:32:54 GMT 42.274246 -76.758850 11,100 214 291 2432
2021-04-30 15:32:46 GMT 42.282093 -76.751701 10,800 215 292 2432
2021-04-30 15:32:43 GMT 42.286564 -76.747551 10,625 215 293 2560
2021-04-30 15:32:36 GMT 42.293518 -76.741127 10,375 215 294 2304
2021-04-30 15:32:32 GMT 42.298004 -76.736946 10,225 215 294 2432
2021-04-30 15:32:26 GMT 42.305836 -76.729599 9,950 215 294 2304
2021-04-30 15:32:22 GMT 42.309887 -76.725830 9,800 215 294 2176
2021-04-30 15:32:15 GMT 42.317055 -76.719124 9,575 215 292 2112
2021-04-30 15:32:10 GMT 42.321526 -76.714973 9,450 215 291 1920
2021-04-30 15:32:04 GMT 42.328354 -76.708603 9,225 216 289 2112
2021-04-30 15:31:59 GMT 42.334946 -76.702423 9,025 216 287 1856
2021-04-30 15:31:55 GMT 42.339912 -76.697662 8,900 216 285 1792
2021-04-30 15:31:43 GMT 42.351086 -76.687057 8,600 215 278 1472
2021-04-30 15:31:39 GMT 42.356159 -76.682335 8,525 215 277 512
2021-04-30 15:31:34 GMT 42.361404 -76.677330 8,500 215 274 512
2021-04-30 15:31:29 GMT 42.366165 -76.672813 8,475 216 270 -192
2021-04-30 15:31:24 GMT 42.372482 -76.666840 8,500 216 264 128
2021-04-30 15:31:18 GMT 42.377106 -76.662537 8,475 215 262 704
2021-04-30 15:31:13 GMT 42.382740 -76.657234 8,375 215 268 1280
2021-04-30 15:31:08 GMT 42.387497 -76.652863 8,300 215 275 -192
2021-04-30 15:31:02 GMT 42.393402 -76.647430 8,300 215 277 -512
2021-04-30 15:30:56 GMT 42.400177 -76.641121 8,300 215 276 1280
2021-04-30 15:30:53 GMT 42.404156 -76.637367 8,200 215 272 1984
2021-04-30 15:30:42 GMT 42.415325 -76.626953 7,825 215 270 2240
2021-04-30 15:30:31 GMT 42.425858 -76.617340 7,450 215 267 1920
2021-04-30 15:30:22 GMT 42.436321 -76.607925 7,125 214 263 1920
2021-04-30 15:30:10 GMT 42.447098 -76.598427 6,725 213 261 2304
2021-04-30 15:30:00 GMT 42.457214 -76.589500 6,375 214 257 2240
2021-04-30 15:29:51 GMT 42.467560 -76.580452 5,950 213 254 2880
2021-04-30 15:29:40 GMT 42.477905 -76.571526 5,525 213 252 2048
2021-04-30 15:29:29 GMT 42.487808 -76.562759 5,150 214 247 2432
2021-04-30 15:29:20 GMT 42.497818 -76.553612 4,775 216 241 1408
2021-04-30 15:29:09 GMT 42.506424 -76.544556 4,525 221 228 1344
2021-04-30 15:28:58 GMT 42.514576 -76.534019 4,350 228 212 1088
2021-04-30 15:28:47 GMT 42.520443 -76.523415 3,975 242 196 2240
2021-04-30 15:28:25 GMT 42.517776 -76.494446 2,900 0 151
2021-04-30 15:28:19 GMT 42.515278 -76.494446 2,800 312 148

Making use of Plane Finder data

You are free to use the raw flight data, aircraft information and images provided in this report for your own purposes provided the data is correctly attributed to Plane Finder. We ask that you please credit Plane Finder and link to planefinder.net in close proximity to the content.

Optionally one of the following logos (no smaller then 150x24px) can be used and must link to planefinder.net

Embedding the Plane Finder map

You are welcome to embed the Plane Finder playback map on your website to offer visitors a more interactive experience. We suggest using the following HTML code:

<iframe src="//planefinder.net/data/report/AA6156-N647AE-7700-squawk-2021-04-30/map" width="800" height="600" seamless="seamless"></iframe>

Where our data comes from

Plane Finder has a global network of data feeds and antenna radars that receive data broadcast directly from aircraft. The primary technologies used are ADS-B and MLAT. We also show feeds from the FAA and a FLARM glider feed.

Click here to find out more about the Plane Finder network.

How we collect our data